Latest Weather Observations for Wilcannia Airport

IDN60801

Issued at 10:33 am EDT Wednesday 1 April 2015 (issued every 30 minutes, with the page automatically refreshed every 10 minutes)

About weather observations | Map of weather stations | Latest weather observations for NSW | Other Formats
Station Details ID: 046012 Name: WILCANNIA AERODROME AWS Lat: -31.52 Lon: 143.38 Height: 94.3 m
Data from the previous 72 hours. | See also: Recent months for locations in New South Wales
Date/Time
EDT
Temp
°C
App
Temp
°C
Dew
Point
Rel
Hum
%
Delta-T
°C
Wind Press
QNH
hPa
Press
MSL
hPa
Rain
since 9 am
mm
Dir
 
Spd
km/h
Gust
km/h
Spd
kts
Gust
kts
01/10:30am 25.8 22.7 10.4 38 8.6 NNE 17 22 9 12 1019.6 1019.2 0.0
01/10:00am 23.9 20.4 8.7 38 8.2 NE 17 22 9 12 1019.7 1019.3 0.0
01/09:30am 22.1 19.5 7.9 40 7.4 NE 11 17 6 9 1019.7 1019.3 0.0
01/09:00am 20.4 16.9 7.4 43 6.7 ENE 15 20 8 11 1019.4 1019.0 0.0
01/08:30am 18.9 16.6 7.4 47 5.8 E 9 13 5 7 1019.1 1018.7 0.0
01/08:00am 15.2 11.6 4.9 50 4.8 E 13 13 7 7 1018.9 1018.5 0.0
01/07:30am 15.0 11.2 3.8 47 5.2 ENE 13 13 7 7 1018.5 1018.1 0.0
01/07:00am 15.7 11.5 3.8 45 5.5 ENE 15 17 8 9 1018.3 1017.9 0.0
01/06:30am 16.4 12.3 4.4 45 5.7 ENE 15 17 8 9 1018.2 1017.8 0.0
01/06:00am 16.6 12.4 4.0 43 5.9 NE 15 17 8 9 1018.0 1017.6 0.0
01/05:30am 16.6 12.4 3.6 42 6.0 NE 15 17 8 9 1018.0 1017.6 0.0
01/05:00am 16.4 12.5 3.5 42 6.0 ENE 13 13 7 7 1018.0 1017.6 0.0
01/04:30am 16.2 12.5 2.6 40 6.2 ENE 11 11 6 6 1018.3 1017.9 0.0
01/04:00am 16.5 12.8 2.5 39 6.3 E 11 13 6 7 1018.6 1018.2 0.0
01/03:30am 16.5 12.6 1.4 36 6.7 ESE 11 13 6 7 1018.8 1018.4 0.0
01/03:00am 14.8 10.6 -0.9 34 6.5 ESE 11 13 6 7 1019.2 1018.8 0.0
01/02:30am 15.2 11.6 -2.2 30 7.1 SSE 7 9 4 5 1019.4 1019.0 0.0
01/02:00am 16.9 13.6 -1.2 29 7.6 S 6 7 3 4 1019.9 1019.5 0.0
01/01:30am 18.5 15.1 -0.3 28 8.2 SSE 7 9 4 5 1020.0 1019.6 0.0
01/01:00am 20.2 15.8 0.1 26 8.9 SE 13 15 7 8 1019.9 1019.5 0.0
01/12:30am 20.7 15.9 0.5 26 9.1 SE 15 17 8 9 1020.0 1019.6 0.0
01/12:00am 20.3 15.7 -0.9 24 9.2 SE 13 15 7 8 1020.3 1019.9 0.0
 
Date/Time
EDT
Temp
°C
App
Temp
°C
Dew
Point
Rel
Hum
%
Delta-T
°C
Wind Press
QNH
hPa
Press
MSL
hPa
Rain
since 9 am
mm
Dir
 
Spd
km/h
Gust
km/h
Spd
kts
Gust
kts
31/11:30pm 20.7 15.9 -2.4 21 9.8 SSE 13 15 7 8 1020.6 1020.2 0.0
31/11:00pm 21.0 15.9 -2.1 21 9.9 SSE 15 17 8 9 1020.6 1020.2 0.0
31/10:30pm 20.5 15.7 -2.5 21 9.7 SSE 13 13 7 7 1020.4 1020.0 0.0
31/10:00pm 21.0 16.2 -2.8 20 10.0 SSE 13 13 7 7 1020.4 1020.0 0.0
31/09:30pm 22.0 17.2 -2.7 19 10.6 SSE 13 15 7 8 1020.3 1019.9 0.0
31/09:00pm 22.7 17.8 -3.6 17 11.1 SSE 13 13 7 7 1019.8 1019.4 0.0
31/08:30pm 23.8 19.0 -2.7 17 11.5 SSE 13 15 7 8 1019.4 1019.0 0.0
31/08:00pm 24.7 19.9 -2.8 16 12.0 SSE 13 13 7 7 1019.0 1018.6 0.0
31/07:30pm 27.0 22.7 -1.8 15 13.0 SSE 11 17 6 9 1018.7 1018.3 0.0
31/07:00pm 29.3 24.7 -0.9 14 14.1 SE 13 20 7 11 1018.6 1018.2 0.0
31/06:30pm 30.5 25.7 0.0 14 14.7 SE 15 20 8 11 1018.4 1018.0 0.0
31/06:00pm 31.1 25.8 -0.5 13 15.1 SE 17 30 9 16 1018.4 1018.0 0.0
31/05:30pm 31.6 26.4 -0.1 13 15.3 SE 17 24 9 13 1018.3 1017.9 0.0
31/05:00pm 31.5 26.3 -0.2 13 15.3 SSE 17 26 9 14 1018.4 1018.0 0.0
31/04:30pm 31.9 26.9 1.1 14 15.2 SSE 17 26 9 14 1018.5 1018.1 0.0
31/04:00pm 31.9 26.1 0.1 13 15.4 SE 20 28 11 15 1019.0 1018.6 0.0
31/03:30pm 31.7 27.4 1.0 14 15.1 SE 13 28 7 15 1019.3 1018.9 0.0
31/03:00pm 31.5 26.4 0.8 14 15.0 SE 17 22 9 12 1019.8 1019.4 0.0
31/02:30pm 31.6 26.9 0.9 14 15.1 SE 15 24 8 13 1020.2 1019.8 0.0
31/02:00pm 31.1 26.5 1.4 15 14.6 ESE 15 26 8 14 1020.9 1020.5 0.0
31/01:30pm 31.2 27.0 1.5 15 14.7 S 13 20 7 11 1021.6 1021.2 0.0
31/01:00pm 30.9 26.3 1.3 15 14.5 SE 15 30 8 16 1022.2 1021.8 0.0
31/12:30pm 30.2 24.7 0.7 15 14.3 ESE 19 28 10 15 1022.8 1022.4 0.0
31/12:00pm 30.5 25.4 1.0 15 14.4 ESE 17 26 9 14 1023.1 1022.7 0.0
31/11:30am 29.5 23.9 1.1 16 13.8 E 20 28 11 15 1023.3 1022.9 0.0
31/11:00am 28.9 23.3 1.4 17 13.3 E 20 28 11 15 1023.5 1023.2 0.0
31/10:30am 27.3 22.2 3.1 21 12.0 E 19 24 10 13 1023.4 1023.0 0.0
31/10:00am 25.8 21.1 3.1 23 11.1 E 17 22 9 12 1023.5 1023.2 0.0
31/09:30am 23.6 18.9 3.0 26 10.0 ESE 17 22 9 12 1023.3 1022.9 0.0
31/09:00am 22.1 18.2 3.3 29 9.0 ESE 13 17 7 9 1023.2 1022.8 0.0
31/08:30am 18.2 15.5 3.7 38 6.8 SE 7 9 4 5 1022.8 1022.4 0.0
31/08:27am 17.8 14.7 3.7 39 6.6 SE 9 11 5 6 1022.8 1022.4 0.0
31/08:00am 12.8 9.1 2.6 50 4.5 SE 11 13 6 7 1022.4 1022.0 0.0
31/07:30am 11.8 8.6 0.9 47 4.6 SSE 7 9 4 5 1022.1 1021.7 0.0
31/07:00am 12.7 9.4 2.3 49 4.5 SSE 9 11 5 6 1022.0 1021.6 0.0
31/06:30am 13.1 9.3 1.5 45 5.0 SSE 11 13 6 7 1021.6 1021.2 0.0
31/06:00am 14.1 10.7 1.7 43 5.4 S 9 11 5 6 1021.5 1021.1 0.0
31/05:30am 14.9 11.2 2.1 42 5.7 SE 11 13 6 7 1021.1 1020.7 0.0
31/05:00am 16.1 12.0 2.2 39 6.2 SE 13 15 7 8 1021.0 1020.6 0.0
31/04:30am 16.8 12.7 2.0 37 6.7 SSE 13 15 7 8 1021.0 1020.6 0.0
31/04:00am 17.6 13.1 2.0 35 7.0 SSE 15 15 8 8 1021.3 1020.9 0.0
31/03:30am 18.0 13.8 1.9 34 7.3 SSE 13 15 7 8 1021.5 1021.1 0.0
31/03:00am 19.2 15.1 2.1 32 7.8 SE 13 17 7 9 1021.7 1021.3 0.0
31/02:30am 19.7 15.7 3.0 33 7.8 SE 13 19 7 10 1022.0 1021.6 0.0
31/02:00am 18.8 14.8 2.6 34 7.5 SE 13 17 7 9 1022.1 1021.7 0.0
31/01:30am 17.7 13.7 2.8 37 6.9 SSE 13 15 7 8 1022.2 1021.8 0.0
31/01:00am 17.3 13.4 1.3 34 7.1 S 11 11 6 6 1022.2 1021.8 0.0
31/12:30am 18.3 14.6 2.2 34 7.4 S 11 13 6 7 1022.2 1021.8 0.0
31/12:00am 17.8 13.9 1.3 33 7.3 SSW 11 13 6 7 1022.2 1021.8 0.0
 
Date/Time
EDT
Temp
°C
App
Temp
°C
Dew
Point
Rel
Hum
%
Delta-T
°C
Wind Press
QNH
hPa
Press
MSL
hPa
Rain
since 9 am
mm
Dir
 
Spd
km/h
Gust
km/h
Spd
kts
Gust
kts
30/11:30pm 18.4 14.5 1.4 32 7.7 SW 11 13 6 7 1022.3 1021.9 0.0
30/11:00pm 18.9 15.5 1.9 32 7.7 SW 9 9 5 5 1022.5 1022.1 0.0
30/10:30pm 20.2 16.9 2.5 31 8.3 SSW 9 11 5 6 1022.4 1022.0 0.0
30/10:00pm 20.4 17.1 2.3 30 8.4 S 9 11 5 6 1022.3 1021.9 0.0
30/09:30pm 20.2 16.5 2.1 30 8.4 S 11 13 6 7 1022.2 1021.8 0.0
30/09:00pm 21.9 18.7 3.1 29 9.0 SSW 9 11 5 6 1022.0 1021.6 0.0
30/08:30pm 22.3 19.1 2.9 28 9.3 SSW 9 11 5 6 1021.8 1021.4 0.0
30/08:00pm 23.9 20.3 2.7 25 10.2 SSW 11 13 6 7 1021.5 1021.1 0.0
30/07:30pm 25.8 22.2 3.1 23 11.2 SSW 11 15 6 8 1021.2 1020.8 0.0
30/07:00pm 27.4 23.5 3.2 21 12.0 S 13 19 7 10 1020.8 1020.4 0.0
30/06:30pm 28.3 23.6 3.2 20 12.6 SSW 17 22 9 12 1020.8 1020.4 0.0
30/06:00pm 28.9 25.1 3.7 20 12.7 S 13 22 7 12 1020.6 1020.2 0.0
30/05:30pm 29.3 24.8 4.0 20 12.9 SSE 17 22 9 12 1020.5 1020.1 0.0
30/05:00pm 29.1 24.8 3.1 19 13.0 S 15 28 8 15 1020.3 1019.9 0.0
30/04:30pm 29.8 25.2 3.7 19 13.3 SSW 17 26 9 14 1020.3 1019.9 0.0
30/04:00pm 29.9 26.7 3.0 18 13.5 SSW 9 20 5 11 1020.6 1020.2 0.0
30/03:30pm 29.3 24.7 1.7 17 13.6 SW 15 24 8 13 1020.8 1020.4 0.0
30/03:00pm 28.4 24.2 1.8 18 13.0 SSE 13 20 7 11 1021.1 1020.7 0.0
30/02:30pm 28.9 25.4 3.7 20 12.8 E 11 17 6 9 1021.3 1020.9 0.0
30/02:00pm 28.0 24.5 3.7 21 12.2 ESE 11 22 6 12 1021.6 1021.2 0.0
30/01:30pm 27.2 23.9 4.3 23 11.6 ESE 11 20 6 11 1022.1 1021.7 0.0
30/01:00pm 26.9 22.8 4.6 24 11.3 ESE 15 22 8 12 1022.6 1022.2 0.0
30/12:30pm 26.2 21.7 4.1 24 11.1 SE 17 24 9 13 1023.1 1022.7 0.0
30/12:00pm 25.9 21.1 4.9 26 10.6 SE 19 24 10 13 1023.5 1023.2 0.0
30/11:30am 25.6 20.7 5.2 27 10.4 SE 20 28 11 15 1024.0 1023.6 0.0
30/11:00am 24.9 20.6 5.2 28 10.0 SSE 17 22 9 12 1024.4 1024.0 0.0
30/10:30am 23.5 19.2 5.4 31 9.1 SSE 17 24 9 13 1024.4 1024.0 0.0
30/10:00am 22.5 18.4 6.3 35 8.2 SSE 17 22 9 12 1024.4 1024.0 0.0
30/09:30am 20.7 16.9 7.7 43 6.7 S 17 24 9 13 1024.2 1023.8 0.0
30/09:00am 18.1 15.6 8.4 53 5.0 S 11 13 6 7 1024.1 1023.7 0.0
30/08:30am 17.8 15.4 8.6 55 4.8 S 11 15 6 8 1023.6 1023.3 0.0
30/08:00am 14.3 12.0 7.6 64 3.3 SSE 9 13 5 7 1023.4 1023.0 0.0
30/07:30am 14.5 11.4 7.1 61 3.6 SSW 13 15 7 8 1023.1 1022.7 0.0
30/07:00am 15.3 12.4 6.6 56 4.2 SW 11 13 6 7 1023.0 1022.6 0.0
30/06:30am 16.0 14.1 6.7 54 4.6 SSW 6 7 3 4 1022.6 1022.2 0.0
30/06:00am 16.2 13.7 6.6 53 4.7 S 9 11 5 6 1022.3 1021.9 0.0
30/05:30am 16.3 13.5 7.0 54 4.6 S 11 15 6 8 1022.0 1021.6 0.0
30/05:00am 16.7 13.9 6.8 52 4.9 SW 11 13 6 7 1021.9 1021.5 0.0
30/04:30am 17.4 15.4 7.2 51 5.1 S 7 13 4 7 1021.6 1021.2 0.0
30/04:00am 17.1 14.6 8.0 55 4.6 SSW 11 13 6 7 1021.8 1021.4 0.0
30/03:30am 16.4 14.1 8.9 61 3.9 SSW 11 13 6 7 1022.1 1021.7 0.0
30/03:00am 16.5 13.9 9.2 62 3.8 N 13 15 7 8 1022.5 1022.1 0.0
30/02:30am 17.3 14.7 6.2 48 5.5 WSW 9 13 5 7 1022.6 1022.2 0.0
30/02:00am 16.8 15.8 5.4 47 5.5 CALM 0 0 0 0 1022.5 1022.1 0.0
30/01:30am 16.4 15.3 5.1 47 5.4 CALM 0 0 0 0 1022.6 1022.2 0.0
30/01:00am 16.9 15.4 5.2 46 5.6 S 2 6 1 3 1022.6 1022.2 0.0
30/12:30am 17.8 15.1 5.4 44 6.0 SSE 9 11 5 6 1022.7 1022.3 0.0
30/12:00am 18.3 15.2 5.5 43 6.2 S 11 13 6 7 1022.7 1022.3 0.0
 
Date/Time
EDT
Temp
°C
App
Temp
°C
Dew
Point
Rel
Hum
%
Delta-T
°C
Wind Press
QNH
hPa
Press
MSL
hPa
Rain
since 9 am
mm
Dir
 
Spd
km/h
Gust
km/h
Spd
kts
Gust
kts
29/11:30pm 18.8 15.8 6.0 43 6.3 S 11 13 6 7 1022.9 1022.5 0.0
29/11:00pm 19.8 16.8 6.2 41 6.8 S 11 15 6 8 1022.9 1022.5 0.0
29/10:30pm 20.3 17.0 6.3 40 7.0 S 13 17 7 9 1023.1 1022.7 0.0
29/10:00pm 20.4 16.7 6.4 40 7.0 SSE 15 20 8 11 1023.0 1022.6 0.0
29/09:30pm 20.3 16.9 5.9 39 7.2 SSE 13 17 7 9 1022.9 1022.5 0.0
29/09:00pm 20.8 16.2 5.6 37 7.5 S 19 30 10 16 1022.8 1022.4 0.0
29/08:30pm 21.6 17.9 4.7 33 8.3 S 13 15 7 8 1022.3 1021.9 0.0
29/08:00pm 21.9 17.5 4.9 33 8.4 S 17 22 9 12 1022.1 1021.7 0.0
29/07:30pm 22.5 18.1 4.5 31 8.9 S 17 26 9 14 1021.7 1021.3 0.0
29/07:00pm 22.9 18.1 4.4 30 9.1 S 19 24 10 13 1021.5 1021.1 0.0
29/06:30pm 23.3 18.9 4.8 30 9.2 SSW 17 24 9 13 1021.7 1021.3 0.0
29/06:00pm 23.9 19.0 4.3 28 9.7 S 19 22 10 12 1021.5 1021.1 0.0
29/05:30pm 24.1 20.3 4.0 27 9.9 SSW 13 19 7 10 1021.6 1021.2 0.0
29/05:00pm 24.4 21.0 4.2 27 10.0 SW 11 15 6 8 1021.5 1021.1 0.0
29/04:30pm 24.5 21.1 3.8 26 10.2 SW 11 17 6 9 1021.6 1021.2 0.0
29/04:00pm 24.5 21.1 3.8 26 10.2 WSW 11 15 6 8 1021.7 1021.3 0.0
29/03:30pm 24.7 22.2 3.9 26 10.3 SSW 6 11 3 6 1021.9 1021.5 0.0
29/03:00pm 24.6 21.9 3.8 26 10.2 SW 7 11 4 6 1022.1 1021.7 0.0
29/02:30pm 24.7 22.5 6.0 30 9.6 WSW 7 11 4 6 1022.3 1021.9 0.0
29/02:00pm 24.8 22.1 2.9 24 10.6 E 6 9 3 5 1022.4 1022.0 0.0
29/01:30pm 25.2 22.0 3.2 24 10.8 WSW 9 13 5 7 1022.9 1022.5 0.0
29/01:00pm 25.0 21.8 3.0 24 10.7 SSW 9 17 5 9 1023.2 1022.8 0.0
29/12:30pm 25.4 22.8 3.4 24 10.9 SW 6 15 3 8 1023.3 1022.9 0.0
29/12:00pm 24.8 22.5 2.9 24 10.6 ENE 4 9 2 5 1023.6 1023.3 0.0
29/11:30am 24.2 21.5 2.9 25 10.3 E 6 7 3 4 1023.8 1023.5 0.0
29/11:00am 23.8 20.5 2.6 25 10.1 ENE 9 13 5 7 1023.7 1023.4 0.0

Other Formats:

Comma delimited format used in spreadsheet applications
http://www.bom.gov.au/fwo/IDN60801/IDN60801.95695.axf

JavaScript Object Notation format (JSON) in row-major order
http://www.bom.gov.au/fwo/IDN60801/IDN60801.95695.json